Time;durP1;ratioP1;P1;durP2;ratioP2;P2;SDS_P1;SDS_P2;PMS_P1;PMS_P2;Temp;Humidity;BMP_temperature;BMP_pressure;BME280_temperature;BME280_humidity;BME280_pressure;Samples;Min_cycle;Max_cycle;Signal;HPM_P1;HPM_P2
2021/11/21 00:01:13;;;;;;;29.15;21.17;;;;;;;7.18;81.13;99546.41;5029473;28;20064;-72
2021/11/21 00:03:42;;;;;;;28.83;22.27;;;;;;;7.17;81.46;99538.63;5030252;28;20092;-72
2021/11/21 00:06:07;;;;;;;29.75;21.35;;;;;;;7.20;81.40;99533.25;5027307;28;20512;-71
2021/11/21 00:08:33;;;;;;;27.83;22.00;;;;;;;7.18;81.14;99527.22;5029790;28;20128;-72
2021/11/21 00:10:59;;;;;;;32.67;24.70;;;;;;;7.17;81.18;99525.50;5024668;28;20120;-73
2021/11/21 00:13:24;;;;;;;36.35;25.95;;;;;;;7.17;81.44;99520.28;5030039;28;20125;-71
2021/11/21 00:15:53;;;;;;;36.05;25.50;;;;;;;7.15;81.27;99516.84;5029808;28;20037;-73
2021/11/21 00:18:19;;;;;;;34.08;24.35;;;;;;;7.13;81.79;99506.41;5028606;28;20033;-72
2021/11/21 00:20:45;;;;;;;32.15;24.05;;;;;;;7.12;81.82;99498.63;5031175;28;20679;-73
2021/11/21 00:23:11;;;;;;;31.67;23.48;;;;;;;7.12;81.97;99498.63;5037753;28;20040;-72
2021/11/21 00:25:37;;;;;;;35.53;23.20;;;;;;;7.10;81.90;99486.41;5029770;28;20033;-72
2021/11/21 00:28:04;;;;;;;33.63;24.50;;;;;;;7.08;81.80;99480.38;5033308;28;20458;-74
2021/11/21 00:30:29;;;;;;;30.05;22.90;;;;;;;7.07;81.83;99491.78;5030600;28;20430;-74
2021/11/21 00:32:55;;;;;;;32.75;22.85;;;;;;;7.08;81.74;99476.91;5033380;28;20037;-73
2021/11/21 00:35:21;;;;;;;30.88;23.55;;;;;;;7.09;81.39;99482.09;5031712;28;20033;-73
2021/11/21 00:37:46;;;;;;;31.15;21.90;;;;;;;7.06;81.60;99481.34;5030703;28;20038;-73
2021/11/21 00:40:12;;;;;;;34.13;23.38;;;;;;;7.06;81.71;99482.22;5021881;28;20033;-73
2021/11/21 00:42:37;;;;;;;28.73;20.92;;;;;;;7.09;81.61;99468.16;5029296;28;20111;-72
2021/11/21 00:45:05;;;;;;;29.67;21.45;;;;;;;7.12;81.87;99470.63;5027868;28;20072;-72
2021/11/21 00:47:31;;;;;;;32.25;21.52;;;;;;;7.14;81.73;99471.44;5028263;28;20115;-72
2021/11/21 00:49:56;;;;;;;26.58;19.55;;;;;;;7.18;81.74;99470.38;5022024;28;20445;-72
2021/11/21 00:52:22;;;;;;;31.55;22.95;;;;;;;7.10;81.60;99462.81;5030181;28;20033;-72
2021/11/21 00:54:52;;;;;;;33.17;21.55;;;;;;;7.09;81.34;99461.13;5030333;28;20026;-72
2021/11/21 00:57:17;;;;;;;27.50;20.55;;;;;;;7.07;81.48;99462.09;5030403;28;20032;-72
2021/11/21 00:59:44;;;;;;;29.50;20.63;;;;;;;7.12;81.56;99456.69;5028985;28;20037;-72
2021/11/21 01:02:12;;;;;;;28.70;20.50;;;;;;;7.13;81.28;99456.59;5030384;28;20135;-72
2021/11/21 01:04:46;;;;;;;25.92;19.77;;;;;;;7.09;81.36;99455.03;5028840;28;20033;-73
2021/11/21 01:07:12;;;;;;;29.17;19.52;;;;;;;7.10;81.86;99446.25;5021547;28;20036;-72
2021/11/21 01:09:39;;;;;;;27.73;20.63;;;;;;;7.09;81.39;99450.66;5028872;28;20029;-74
2021/11/21 01:12:07;;;;;;;28.10;20.00;;;;;;;7.10;80.84;99447.09;5028840;28;20064;-71
2021/11/21 01:14:33;;;;;;;24.10;18.45;;;;;;;7.14;81.20;99454.84;5029744;28;20038;-74
2021/11/21 01:16:59;;;;;;;27.33;19.45;;;;;;;7.14;80.83;99449.59;5029730;28;20107;-73
2021/11/21 01:19:25;;;;;;;26.48;19.27;;;;;;;7.13;80.78;99445.28;5028051;28;20029;-72
2021/11/21 01:21:51;;;;;;;26.13;17.45;;;;;;;7.17;80.66;99439.00;5029272;28;20758;-72
2021/11/21 01:24:16;;;;;;;22.38;17.17;;;;;;;7.16;80.38;99429.41;5020289;28;20041;-72
2021/11/21 01:26:42;;;;;;;24.52;16.95;;;;;;;7.10;80.44;99428.75;5032389;28;20116;-72
2021/11/21 01:29:08;;;;;;;27.83;19.15;;;;;;;7.09;80.55;99428.84;5027808;28;20041;-72
2021/11/21 01:31:33;;;;;;;22.05;16.13;;;;;;;7.12;80.43;99438.34;5020899;28;20051;-73
2021/11/21 01:33:59;;;;;;;27.42;19.67;;;;;;;7.17;80.49;99436.38;5026642;28;20481;-73
2021/11/21 01:36:24;;;;;;;27.38;16.75;;;;;;;7.20;80.54;99441.50;5023626;28;20037;-72
2021/11/21 01:38:53;;;;;;;29.75;18.88;;;;;;;7.21;80.68;99438.81;5037779;28;20423;-75
2021/11/21 01:41:19;;;;;;;27.40;19.13;;;;;;;7.23;80.09;99443.97;5028157;28;20064;-73
2021/11/21 01:43:45;;;;;;;28.25;20.23;;;;;;;7.21;80.22;99428.34;5028778;28;20447;-72
2021/11/21 01:46:11;;;;;;;25.00;18.05;;;;;;;7.24;80.61;99433.44;5029495;28;20110;-72
2021/11/21 01:48:36;;;;;;;28.25;19.85;;;;;;;7.25;80.17;99439.53;5029341;28;20033;-71
2021/11/21 01:51:08;;;;;;;25.40;18.70;;;;;;;7.26;80.51;99439.47;5032720;28;20025;-73
2021/11/21 01:53:35;;;;;;;26.75;17.70;;;;;;;7.27;80.60;99430.69;5032270;28;20483;-73
2021/11/21 01:56:01;;;;;;;25.70;16.08;;;;;;;7.28;80.79;99434.16;5030709;28;20420;-72
2021/11/21 01:58:27;;;;;;;26.27;18.77;;;;;;;7.27;80.25;99428.06;5027829;28;20041;-72
2021/11/21 02:00:54;;;;;;;25.90;17.35;;;;;;;7.26;80.48;99423.75;5003793;28;20040;-72
2021/11/21 02:03:19;;;;;;;30.13;19.10;;;;;;;7.25;80.25;99415.94;5016480;28;20675;-72
2021/11/21 02:05:46;;;;;;;25.83;18.15;;;;;;;7.17;80.75;99413.63;5028020;28;20045;-72
2021/11/21 02:08:12;;;;;;;27.60;18.25;;;;;;;7.15;81.01;99410.22;5026437;28;20040;-72
2021/11/21 02:10:38;;;;;;;24.08;15.88;;;;;;;7.14;81.09;99408.53;5027252;28;20041;-71
2021/11/21 02:13:05;;;;;;;22.38;15.25;;;;;;;7.17;81.20;99405.75;5026972;28;20033;-72
2021/11/21 02:15:31;;;;;;;22.85;16.88;;;;;;;7.17;80.87;99397.91;5027606;28;20107;-72
2021/11/21 02:17:56;;;;;;;21.02;14.48;;;;;;;7.16;80.87;99390.09;5027817;28;20504;-72
2021/11/21 02:20:34;;;;;;;22.63;16.77;;;;;;;7.14;81.05;99391.91;5027194;28;20042;-72
2021/11/21 02:23:04;;;;;;;22.38;15.40;;;;;;;7.12;80.90;99391.16;5027199;28;20042;-72
2021/11/21 02:25:29;;;;;;;23.35;16.33;;;;;;;7.09;80.85;99387.75;5027583;28;20120;-73
2021/11/21 02:27:54;;;;;;;23.33;16.35;;;;;;;7.08;81.12;99386.00;5027293;28;20120;-72
2021/11/21 02:30:20;;;;;;;23.38;16.13;;;;;;;7.04;81.04;99378.38;5027151;28;20041;-72
2021/11/21 02:32:51;;;;;;;20.20;14.88;;;;;;;7.05;81.18;99377.44;5027115;28;20034;-71
2021/11/21 02:35:17;;;;;;;26.42;17.40;;;;;;;7.04;81.08;99360.88;5027178;28;20362;-72
2021/11/21 02:37:43;;;;;;;23.08;16.63;;;;;;;7.04;81.37;99376.59;5027262;28;20033;-72
2021/11/21 02:40:10;;;;;;;24.30;16.52;;;;;;;7.00;81.40;99361.06;5024997;28;20032;-72
2021/11/21 02:42:36;;;;;;;24.40;18.38;;;;;;;7.01;81.45;99362.75;5026697;28;20052;-73
2021/11/21 02:45:09;;;;;;;23.83;16.13;;;;;;;6.97;81.87;99355.94;5026453;28;20034;-72
2021/11/21 02:47:34;;;;;;;29.08;19.02;;;;;;;6.99;82.13;99360.22;5007396;28;20026;-72
2021/11/21 02:50:06;;;;;;;28.17;17.17;;;;;;;7.02;81.97;99356.59;5006108;28;20040;-72
2021/11/21 02:52:32;;;;;;;23.00;15.48;;;;;;;7.03;82.34;99358.31;5020899;28;20040;-72
2021/11/21 02:54:58;;;;;;;24.73;17.40;;;;;;;7.02;82.18;99362.69;4993276;28;20037;-71
2021/11/21 02:57:27;;;;;;;28.25;18.42;;;;;;;7.03;82.34;99367.00;5027191;28;20045;-72
2021/11/21 02:59:53;;;;;;;20.58;15.80;;;;;;;7.05;82.27;99359.94;5024271;28;20033;-73
2021/11/21 03:02:19;;;;;;;22.67;17.20;;;;;;;7.06;82.08;99360.78;5045067;28;20443;-72
2021/11/21 03:04:51;;;;;;;25.35;16.88;;;;;;;7.06;82.50;99353.81;5045937;28;20112;-73
2021/11/21 03:07:18;;;;;;;22.52;16.02;;;;;;;7.05;82.42;99353.84;5044654;28;20104;-72
2021/11/21 03:09:47;;;;;;;25.85;16.80;;;;;;;7.01;82.99;99355.72;5045985;28;20040;-73
2021/11/21 03:12:13;;;;;;;25.70;18.75;;;;;;;7.02;83.26;99351.38;5045630;28;20033;-72
2021/11/21 03:14:38;;;;;;;22.90;17.00;;;;;;;7.01;83.16;99347.88;5046324;28;20037;-72
2021/11/21 03:17:04;;;;;;;23.15;15.32;;;;;;;7.03;83.44;99346.03;5046559;28;20042;-72
2021/11/21 03:19:31;;;;;;;22.10;16.30;;;;;;;6.98;83.17;99345.38;5027877;28;20092;-72
2021/11/21 03:21:56;;;;;;;21.23;14.52;;;;;;;6.94;83.17;99337.72;5026670;28;20744;-72
2021/11/21 03:24:22;;;;;;;23.55;16.50;;;;;;;6.93;83.56;99339.47;5026680;28;20045;-73
2021/11/21 03:26:47;;;;;;;21.13;14.65;;;;;;;6.93;83.24;99339.47;5026811;28;20025;-72
2021/11/21 03:29:15;;;;;;;21.83;14.85;;;;;;;6.90;83.28;99333.53;5026233;28;20041;-73
2021/11/21 03:31:41;;;;;;;21.08;14.23;;;;;;;6.91;84.05;99333.44;5025347;28;20041;-72
2021/11/21 03:34:06;;;;;;;20.35;13.60;;;;;;;6.93;83.72;99331.63;5026249;28;20083;-73
2021/11/21 03:36:33;;;;;;;17.38;13.68;;;;;;;6.93;83.85;99330.78;5026453;28;20029;-72
2021/11/21 03:39:00;;;;;;;20.67;13.88;;;;;;;6.94;83.73;99332.47;5025912;28;20524;-72
2021/11/21 03:41:26;;;;;;;17.65;12.50;;;;;;;6.94;83.79;99328.09;5026189;28;20084;-71
2021/11/21 03:43:51;;;;;;;14.75;10.65;;;;;;;6.96;83.68;99328.03;5026826;28;20030;-72
2021/11/21 03:46:17;;;;;;;20.40;11.70;;;;;;;6.94;83.48;99322.00;5025914;28;20041;-72
2021/11/21 03:48:43;;;;;;;18.20;13.45;;;;;;;6.94;83.73;99328.09;5025860;28;20651;-72
2021/11/21 03:51:08;;;;;;;21.50;12.82;;;;;;;6.94;83.62;99319.38;5026095;28;20030;-72
2021/11/21 03:53:34;;;;;;;18.48;11.75;;;;;;;6.93;83.84;99321.13;5025706;28;20037;-74
2021/11/21 03:55:59;;;;;;;18.33;12.57;;;;;;;6.96;84.02;99317.53;5025163;28;20469;-72
2021/11/21 03:58:24;;;;;;;16.25;10.77;;;;;;;6.98;84.18;99315.72;5025725;28;20087;-72
2021/11/21 04:00:50;;;;;;;15.60;10.38;;;;;;;6.96;83.86;99312.31;5027290;28;20030;-73
2021/11/21 04:03:17;;;;;;;16.00;11.00;;;;;;;6.96;83.70;99310.53;5029550;28;20504;-72
2021/11/21 04:05:43;;;;;;;16.00;11.00;;;;;;;6.99;83.64;99309.53;5029422;28;20680;-72
2021/11/21 04:08:09;;;;;;;17.50;11.45;;;;;;;6.93;83.66;99299.34;5028640;28;20426;-72
2021/11/21 04:10:35;;;;;;;20.17;12.88;;;;;;;6.91;83.61;99294.16;5029003;28;20128;-73
2021/11/21 04:13:01;;;;;;;19.67;12.50;;;;;;;6.94;83.64;99294.03;5029727;28;20045;-72
2021/11/21 04:15:27;;;;;;;13.85;9.93;;;;;;;6.92;83.58;99289.78;5029489;28;20046;-72
2021/11/21 04:17:53;;;;;;;17.83;11.80;;;;;;;6.92;83.23;99285.38;5029770;28;20044;-72
2021/11/21 04:20:18;;;;;;;14.45;11.02;;;;;;;6.96;83.48;99286.09;5028855;28;20552;-71
2021/11/21 04:22:44;;;;;;;12.40;9.88;;;;;;;6.99;83.49;99284.22;5029364;28;20124;-71
2021/11/21 04:25:10;;;;;;;14.95;10.13;;;;;;;6.99;83.40;99285.94;5029273;28;20065;-72
2021/11/21 04:27:36;;;;;;;16.58;10.48;;;;;;;6.97;83.36;99285.19;5029772;28;20049;-72
2021/11/21 04:30:04;;;;;;;15.85;10.48;;;;;;;6.99;83.46;99286.84;5028678;28;20029;-72
2021/11/21 04:32:30;;;;;;;12.95;9.05;;;;;;;7.00;83.24;99277.19;5028222;28;20116;-72
2021/11/21 04:34:56;;;;;;;18.35;11.52;;;;;;;6.97;83.00;99286.03;5029298;28;20045;-72
2021/11/21 04:37:21;;;;;;;12.77;9.10;;;;;;;6.95;83.04;99280.00;5030138;28;20037;-72
2021/11/21 04:39:48;;;;;;;16.75;9.60;;;;;;;6.95;83.37;99272.16;5028291;28;20029;-72
2021/11/21 04:42:14;;;;;;;16.52;10.55;;;;;;;6.91;83.30;99267.09;5029189;28;20032;-73
2021/11/21 04:44:40;;;;;;;16.17;11.18;;;;;;;6.91;83.56;99269.72;5029153;28;20508;-73
2021/11/21 04:47:06;;;;;;;16.13;11.35;;;;;;;6.87;83.82;99266.38;5027840;28;20124;-72
2021/11/21 04:49:31;;;;;;;17.08;12.18;;;;;;;6.84;83.92;99267.38;5028237;28;20033;-73
2021/11/21 04:51:57;;;;;;;18.88;12.68;;;;;;;6.82;83.87;99266.59;5028992;28;20409;-73
2021/11/21 04:54:26;;;;;;;15.68;11.52;;;;;;;6.83;83.81;99264.81;5029485;28;20116;-73
2021/11/21 04:56:52;;;;;;;20.65;13.00;;;;;;;6.84;84.06;99262.13;5028920;28;20044;-73
2021/11/21 04:59:17;;;;;;;19.40;13.35;;;;;;;6.83;83.73;99254.31;5028345;28;20040;-72
2021/11/21 05:01:43;;;;;;;21.08;13.48;;;;;;;6.84;84.16;99251.66;5030053;28;20033;-72
2021/11/21 05:04:09;;;;;;;21.25;13.82;;;;;;;6.86;83.79;99248.94;5048542;28;20048;-72
2021/11/21 05:06:34;;;;;;;16.65;12.15;;;;;;;6.86;83.83;99243.72;5048630;28;20108;-72
2021/11/21 05:09:01;;;;;;;17.10;12.88;;;;;;;6.88;83.94;99240.09;5047772;28;20385;-71
2021/11/21 05:11:27;;;;;;;15.32;12.13;;;;;;;6.89;83.66;99238.31;5047515;28;20087;-72
2021/11/21 05:13:52;;;;;;;17.67;12.38;;;;;;;6.89;83.69;99230.47;5048278;28;20033;-71
2021/11/21 05:16:17;;;;;;;16.77;11.82;;;;;;;6.94;83.81;99233.78;5048241;28;20029;-72
2021/11/21 05:18:43;;;;;;;18.58;12.60;;;;;;;6.97;83.55;99244.09;5036351;28;20071;-72
2021/11/21 05:21:08;;;;;;;19.98;13.45;;;;;;;6.95;83.53;99238.06;5027765;28;20038;-72
2021/11/21 05:23:34;;;;;;;18.33;12.85;;;;;;;6.93;83.34;99236.44;5028706;28;20088;-72
2021/11/21 05:25:59;;;;;;;17.88;13.80;;;;;;;6.92;83.54;99229.50;5028812;28;20033;-72
2021/11/21 05:28:25;;;;;;;19.02;13.70;;;;;;;6.93;83.49;99231.19;5029905;28;20033;-73
2021/11/21 05:30:51;;;;;;;17.15;12.23;;;;;;;6.97;83.54;99235.41;5028296;28;20489;-72
2021/11/21 05:33:17;;;;;;;17.63;12.80;;;;;;;6.99;83.60;99239.66;5027070;28;20029;-72
2021/11/21 05:35:44;;;;;;;18.33;14.38;;;;;;;7.00;83.30;99240.50;5028046;28;20037;-72
2021/11/21 05:38:09;;;;;;;19.70;14.18;;;;;;;7.00;83.32;99230.88;5028146;28;20376;-72
2021/11/21 05:40:35;;;;;;;19.02;13.70;;;;;;;7.00;83.54;99230.03;5027132;28;20033;-71
2021/11/21 05:43:01;;;;;;;23.35;15.55;;;;;;;6.96;82.98;99233.69;5027893;28;20109;-72
2021/11/21 05:45:27;;;;;;;20.83;14.27;;;;;;;6.96;83.51;99223.19;5027921;28;20065;-72
2021/11/21 05:47:53;;;;;;;21.58;13.38;;;;;;;6.99;83.51;99223.94;5028423;28;20083;-72
2021/11/21 05:50:18;;;;;;;23.20;15.52;;;;;;;7.05;83.26;99220.19;5026733;28;20033;-72
2021/11/21 05:52:45;;;;;;;25.35;16.33;;;;;;;7.05;83.17;99213.16;5027381;28;20033;-71
2021/11/21 05:55:12;;;;;;;20.55;14.77;;;;;;;7.05;82.90;99213.16;5027734;28;20030;-71
2021/11/21 05:57:37;;;;;;;22.98;14.35;;;;;;;7.04;82.69;99216.72;5027985;28;20033;-71
2021/11/21 06:00:06;;;;;;;19.60;13.93;;;;;;;7.06;82.65;99217.50;5027370;28;20082;-72
2021/11/21 06:02:32;;;;;;;21.52;14.73;;;;;;;7.10;83.14;99216.44;5026555;28;20051;-71
2021/11/21 06:04:57;;;;;;;19.83;14.40;;;;;;;7.09;82.88;99214.75;5028680;28;20493;-72
2021/11/21 06:07:23;;;;;;;19.90;14.40;;;;;;;7.12;82.76;99215.53;5028160;28;20124;-72
2021/11/21 06:09:49;;;;;;;18.77;13.00;;;;;;;7.12;82.51;99218.16;5026834;28;20438;-72
2021/11/21 06:12:14;;;;;;;16.17;11.65;;;;;;;7.12;82.43;99216.38;5027794;28;20469;-72
2021/11/21 06:14:40;;;;;;;17.92;13.65;;;;;;;7.12;82.29;99216.38;5027323;28;20033;-71
2021/11/21 06:17:06;;;;;;;19.30;14.27;;;;;;;7.09;82.37;99200.78;5027789;28;20440;-71
2021/11/21 06:19:32;;;;;;;19.50;14.07;;;;;;;7.06;82.10;99201.78;5026541;28;20029;-72
2021/11/21 06:21:57;;;;;;;19.25;13.90;;;;;;;7.02;82.62;99196.75;5027675;28;20512;-72
2021/11/21 06:24:22;;;;;;;17.92;14.02;;;;;;;7.02;82.86;99194.13;5025169;28;20087;-72
2021/11/21 06:26:48;;;;;;;22.45;14.00;;;;;;;7.03;82.76;99196.66;5026668;28;20029;-72
2021/11/21 06:29:13;;;;;;;17.42;12.07;;;;;;;7.05;82.63;99197.44;5025987;28;20508;-72
2021/11/21 06:31:39;;;;;;;22.90;15.30;;;;;;;7.03;82.44;99190.56;5027285;28;20529;-72
2021/11/21 06:34:04;;;;;;;22.38;15.50;;;;;;;7.01;82.81;99195.88;5025936;28;20116;-72
2021/11/21 06:36:30;;;;;;;20.13;13.45;;;;;;;7.06;82.97;99198.28;5027349;28;20044;-72
2021/11/21 06:38:55;;;;;;;20.92;15.00;;;;;;;7.06;82.56;99195.66;5026280;28;20037;-72
2021/11/21 06:41:21;;;;;;;17.05;11.45;;;;;;;7.04;82.60;99190.50;5026959;28;20145;-71
2021/11/21 06:43:47;;;;;;;18.83;12.85;;;;;;;7.05;82.72;99191.34;5025669;28;20029;-72
2021/11/21 06:46:14;;;;;;;17.52;12.52;;;;;;;7.04;82.54;99189.66;5026028;28;20061;-72
2021/11/21 06:48:40;;;;;;;19.52;13.32;;;;;;;7.01;82.41;99188.00;5026270;28;20036;-72
2021/11/21 06:51:06;;;;;;;16.30;10.93;;;;;;;7.04;82.74;99194.91;5027056;28;20116;-73
2021/11/21 06:53:32;;;;;;;16.77;12.60;;;;;;;7.06;82.25;99193.03;5031543;28;20029;-72
2021/11/21 06:55:57;;;;;;;20.98;13.45;;;;;;;7.04;82.56;99195.75;5047593;28;20028;-72
2021/11/21 06:58:25;;;;;;;19.48;13.65;;;;;;;7.03;82.61;99191.41;5046705;28;20044;-72
2021/11/21 07:00:51;;;;;;;21.85;14.27;;;;;;;7.02;82.27;99191.50;5044631;28;20078;-71
2021/11/21 07:03:16;;;;;;;18.10;12.00;;;;;;;7.04;82.57;99201.00;5046409;28;20159;-71
2021/11/21 07:05:41;;;;;;;15.85;12.20;;;;;;;7.06;82.81;99199.16;5046592;28;20043;-72
2021/11/21 07:08:07;;;;;;;18.48;12.73;;;;;;;7.05;82.42;99196.59;5044864;28;20527;-71
2021/11/21 07:10:32;;;;;;;19.02;12.63;;;;;;;7.07;82.70;99203.47;5046014;28;20053;-72
2021/11/21 07:12:58;;;;;;;22.10;14.60;;;;;;;7.13;82.28;99196.25;5045697;28;20036;-71
2021/11/21 07:15:24;;;;;;;17.98;12.77;;;;;;;7.13;82.39;99204.97;5046262;28;20492;-72
2021/11/21 07:17:52;;;;;;;17.70;13.73;;;;;;;7.14;82.42;99203.19;5042709;28;20083;-73
2021/11/21 07:20:18;;;;;;;16.98;12.55;;;;;;;7.09;82.33;99204.25;5025998;28;20029;-72
2021/11/21 07:22:46;;;;;;;19.50;14.38;;;;;;;7.11;82.34;99198.94;5026327;28;20068;-73
2021/11/21 07:25:12;;;;;;;19.67;13.48;;;;;;;7.09;82.42;99200.78;5027309;28;20088;-73
2021/11/21 07:27:38;;;;;;;23.10;15.32;;;;;;;7.10;82.21;99192.84;5027684;28;20068;-72
2021/11/21 07:30:04;;;;;;;20.40;15.02;;;;;;;7.12;82.37;99191.94;5029970;28;20096;-72
2021/11/21 07:32:30;;;;;;;22.52;15.20;;;;;;;7.12;82.78;99195.41;5027410;28;20650;-73
2021/11/21 07:34:55;;;;;;;23.60;15.25;;;;;;;7.11;82.16;99191.06;5027177;28;20477;-73
2021/11/21 07:37:20;;;;;;;20.85;14.60;;;;;;;7.10;82.12;99190.22;5030432;28;20065;-73
2021/11/21 07:39:46;;;;;;;21.80;14.63;;;;;;;7.06;82.29;99193.91;5028234;28;20057;-72
2021/11/21 07:42:11;;;;;;;21.83;15.35;;;;;;;7.04;82.38;99189.66;5029976;28;20488;-72
2021/11/21 07:44:37;;;;;;;18.50;13.63;;;;;;;7.02;82.39;99194.97;5029542;28;20045;-72
2021/11/21 07:47:02;;;;;;;20.65;15.88;;;;;;;7.07;82.61;99198.22;5031152;28;20424;-72
2021/11/21 07:49:28;;;;;;;21.40;15.35;;;;;;;7.09;82.48;99199.03;5030396;28;20072;-73
2021/11/21 07:51:53;;;;;;;21.33;14.52;;;;;;;7.08;82.46;99197.28;5030233;28;20033;-73
2021/11/21 07:54:18;;;;;;;23.88;14.68;;;;;;;7.12;82.63;99197.19;5030343;28;20037;-71
2021/11/21 07:56:44;;;;;;;20.38;14.60;;;;;;;7.12;82.38;99197.19;5030373;28;20037;-72
2021/11/21 07:59:10;;;;;;;18.85;13.95;;;;;;;7.16;82.18;99203.97;5028022;28;20037;-72
2021/11/21 08:01:36;;;;;;;29.17;17.27;;;;;;;7.17;82.12;99201.28;5029926;28;20715;-72
2021/11/21 08:04:02;;;;;;;20.23;13.98;;;;;;;7.17;82.19;99203.91;5030451;28;20034;-72
2021/11/21 08:06:27;;;;;;;20.63;15.15;;;;;;;7.19;82.14;99196.00;5029649;28;20033;-72
2021/11/21 08:08:52;;;;;;;23.05;15.40;;;;;;;7.21;82.01;99195.00;5028983;28;20409;-72
2021/11/21 08:11:18;;;;;;;24.90;19.38;;;;;;;7.22;82.04;99191.44;5029904;28;20485;-73
2021/11/21 08:13:43;;;;;;;22.17;15.85;;;;;;;7.25;81.93;99190.47;5029820;28;20033;-72
2021/11/21 08:16:09;;;;;;;21.77;16.17;;;;;;;7.24;82.24;99197.47;5028673;28;20457;-72
2021/11/21 08:18:34;;;;;;;25.88;16.55;;;;;;;7.26;82.44;99186.91;5029074;28;20057;-72
2021/11/21 08:21:00;;;;;;;21.73;15.10;;;;;;;7.24;82.16;99191.41;5029489;28;20045;-72
2021/11/21 08:23:25;;;;;;;25.63;17.95;;;;;;;7.23;82.46;99185.28;5029643;28;20060;-71
2021/11/21 08:25:50;;;;;;;17.70;13.32;;;;;;;7.27;82.49;99199.13;5029453;28;20083;-72
2021/11/21 08:28:16;;;;;;;23.20;15.27;;;;;;;7.31;82.18;99204.16;5029177;28;20532;-73
2021/11/21 08:30:41;;;;;;;25.90;16.98;;;;;;;7.34;82.73;99203.16;5022147;28;20040;-72
2021/11/21 08:33:09;;;;;;;23.08;16.58;;;;;;;7.32;82.88;99205.84;5028758;28;20040;-70
2021/11/21 08:35:35;;;;;;;23.35;15.93;;;;;;;7.36;82.80;99205.69;5029423;28;20064;-72
2021/11/21 08:38:01;;;;;;;21.77;15.68;;;;;;;7.38;83.37;99214.34;5029383;28;20033;-72
2021/11/21 08:40:29;;;;;;;23.42;15.80;;;;;;;7.37;83.16;99202.16;5027813;28;20396;-71
2021/11/21 08:43:00;;;;;;;20.42;14.00;;;;;;;7.35;83.21;99210.09;5028972;28;20030;-71
2021/11/21 08:45:27;;;;;;;22.70;14.15;;;;;;;7.36;83.07;99200.44;5030002;28;20037;-71
2021/11/21 08:47:54;;;;;;;27.92;16.92;;;;;;;7.37;83.65;99203.00;5029906;28;20552;-71
2021/11/21 08:50:20;;;;;;;19.63;13.82;;;;;;;7.39;83.78;99205.56;5029212;28;20037;-72
2021/11/21 08:52:45;;;;;;;23.92;15.30;;;;;;;7.38;84.09;99203.84;5029217;28;20029;-72
2021/11/21 08:55:12;;;;;;;21.48;13.65;;;;;;;7.40;84.07;99208.13;5028963;28;20125;-71
2021/11/21 08:57:38;;;;;;;24.65;14.45;;;;;;;7.42;83.45;99205.44;5028834;28;20037;-72
2021/11/21 09:00:07;;;;;;;22.90;13.68;;;;;;;7.41;83.83;99209.84;5026935;28;20401;-72
2021/11/21 09:02:33;;;;;;;16.10;10.70;;;;;;;7.40;83.66;99202.88;5025962;28;20056;-72
2021/11/21 09:04:59;;;;;;;14.68;10.48;;;;;;;7.43;83.46;99202.75;5043159;28;20397;-72
2021/11/21 09:07:24;;;;;;;12.95;8.77;;;;;;;7.48;83.52;99206.00;5049211;28;20033;-72
2021/11/21 09:09:51;;;;;;;15.85;9.48;;;;;;;7.50;83.67;99206.75;5046023;28;20079;-73
2021/11/21 09:12:17;;;;;;;11.13;8.23;;;;;;;7.53;83.56;99211.91;5049536;28;20036;-72
2021/11/21 09:14:42;;;;;;;11.02;7.93;;;;;;;7.53;83.34;99208.41;5049440;28;20037;-73
2021/11/21 09:17:08;;;;;;;10.93;6.43;;;;;;;7.51;83.30;99215.50;5049214;28;20391;-72
2021/11/21 09:19:33;;;;;;;11.30;7.50;;;;;;;7.53;83.52;99217.13;5049526;28;20041;-72
2021/11/21 09:21:58;;;;;;;8.85;6.88;;;;;;;7.56;83.44;99223.16;5049960;28;20060;-73
2021/11/21 09:24:25;;;;;;;12.90;9.13;;;;;;;7.56;83.28;99220.53;5049623;28;20029;-72
2021/11/21 09:26:50;;;;;;;10.18;7.30;;;;;;;7.50;83.43;99224.28;5051149;28;20116;-72
2021/11/21 09:29:15;;;;;;;10.27;8.27;;;;;;;7.56;84.08;99233.66;5050862;28;20125;-73
2021/11/21 09:31:41;;;;;;;9.43;7.20;;;;;;;7.55;83.51;99222.28;5045446;28;20037;-72
2021/11/21 09:34:07;;;;;;;8.23;6.32;;;;;;;7.58;83.46;99226.53;5030831;28;20079;-71
2021/11/21 09:36:34;;;;;;;7.85;5.47;;;;;;;7.59;83.74;99225.66;5030249;28;20044;-73
2021/11/21 09:38:59;;;;;;;9.13;6.53;;;;;;;7.63;83.49;99235.06;5026987;28;20440;-71
2021/11/21 09:41:25;;;;;;;9.75;6.63;;;;;;;7.62;83.96;99234.22;5028996;28;20501;-72
2021/11/21 09:43:50;;;;;;;12.77;8.18;;;;;;;7.63;84.10;99237.69;5028818;28;20030;-72
2021/11/21 09:46:17;;;;;;;10.35;6.53;;;;;;;7.60;84.08;99235.19;5028866;28;20026;-72
2021/11/21 09:48:43;;;;;;;7.40;5.43;;;;;;;7.62;83.62;99238.63;5024269;28;20036;-72
2021/11/21 09:51:08;;;;;;;6.07;4.78;;;;;;;7.59;83.98;99231.75;5027894;28;20029;-72
2021/11/21 09:53:34;;;;;;;7.70;5.63;;;;;;;7.63;83.53;99235.94;5028275;28;20438;-72
2021/11/21 09:55:59;;;;;;;10.18;6.20;;;;;;;7.70;83.77;99231.22;5027762;28;20661;-71
2021/11/21 09:58:25;;;;;;;6.32;4.90;;;;;;;7.72;83.41;99229.38;5027186;28;20033;-74
2021/11/21 10:00:50;;;;;;;7.07;4.68;;;;;;;7.74;83.12;99231.03;5027466;28;20044;-73
2021/11/21 10:03:18;;;;;;;5.95;3.95;;;;;;;7.80;83.41;99226.41;5027642;28;20504;-73
2021/11/21 10:05:46;;;;;;;7.07;4.38;;;;;;;7.77;82.84;99221.31;5027870;28;20029;-73
2021/11/21 10:08:24;;;;;;;6.82;4.75;;;;;;;7.81;82.57;99222.88;5027182;28;20036;-72
2021/11/21 10:10:55;;;;;;;7.28;5.13;;;;;;;7.86;82.38;99223.50;5026656;28;20041;-73
2021/11/21 10:13:40;;;;;;;5.57;4.22;;;;;;;7.90;82.46;99225.91;5027266;28;20037;-73
2021/11/21 10:16:18;;;;;;;5.88;4.82;;;;;;;7.95;82.94;99228.34;5027489;28;20594;-72
2021/11/21 10:18:47;;;;;;;5.72;4.07;;;;;;;8.01;82.50;99228.03;5026405;28;20115;-72
2021/11/21 10:21:13;;;;;;;7.13;5.25;;;;;;;8.07;83.03;99224.25;5027000;28;20106;-72
2021/11/21 10:23:38;;;;;;;6.20;4.78;;;;;;;8.12;82.60;99224.88;5027642;28;20469;-73
2021/11/21 10:26:04;;;;;;;8.52;4.65;;;;;;;8.17;82.07;99220.25;5027142;28;20034;-72
2021/11/21 10:28:34;;;;;;;5.00;3.55;;;;;;;8.22;81.35;99220.03;5025738;28;20527;-72
2021/11/21 10:31:16;;;;;;;7.63;4.13;;;;;;;8.27;81.48;99211.03;5027233;28;20049;-72
2021/11/21 10:33:49;;;;;;;5.55;4.13;;;;;;;8.31;80.88;99216.97;5026934;28;20180;-73
2021/11/21 10:36:21;;;;;;;5.50;3.90;;;;;;;8.33;81.02;99215.13;5027207;28;20052;-73
2021/11/21 10:38:54;;;;;;;7.00;4.28;;;;;;;8.33;81.48;99226.47;5026249;28;20040;-72
2021/11/21 10:41:25;;;;;;;5.20;3.63;;;;;;;8.33;81.71;99221.22;5026543;28;20036;-72
2021/11/21 10:43:58;;;;;;;6.50;4.50;;;;;;;8.31;81.03;99220.44;5027017;28;20041;-72
2021/11/21 10:46:28;;;;;;;6.13;4.57;;;;;;;8.33;80.80;99215.13;5026922;28;20048;-72
2021/11/21 10:48:55;;;;;;;5.78;4.45;;;;;;;8.38;81.01;99218.38;5026025;28;20033;-73
2021/11/21 10:51:24;;;;;;;8.13;4.20;;;;;;;8.43;80.47;99216.38;5027099;28;20061;-73
2021/11/21 10:53:51;;;;;;;5.72;4.30;;;;;;;8.44;80.61;99218.09;5026647;28;20124;-74
2021/11/21 10:56:17;;;;;;;7.53;4.50;;;;;;;8.47;80.44;99219.72;5028720;28;20036;-72
2021/11/21 10:58:50;;;;;;;6.13;3.92;;;;;;;8.47;81.16;99223.19;5024591;28;20037;-73
2021/11/21 11:01:21;;;;;;;12.77;7.78;;;;;;;8.47;81.09;99227.63;5026668;28;20069;-73
2021/11/21 11:04:12;;;;;;;8.07;5.38;;;;;;;8.45;81.63;99230.31;5026969;28;20065;-72
2021/11/21 11:06:40;;;;;;;9.35;6.88;;;;;;;8.45;81.40;99217.16;5027171;28;20029;-73
2021/11/21 11:09:19;;;;;;;8.35;5.78;;;;;;;8.48;80.96;99219.63;5026502;28;20068;-72
2021/11/21 11:11:45;;;;;;;6.43;5.22;;;;;;;8.56;81.84;99214.84;5030615;28;20033;-73
2021/11/21 11:14:13;;;;;;;7.13;4.93;;;;;;;8.63;81.42;99215.38;5031098;28;20033;-72
2021/11/21 11:16:39;;;;;;;9.35;6.03;;;;;;;8.68;81.36;99210.75;5029885;28;20429;-72
2021/11/21 11:19:05;;;;;;;8.02;6.70;;;;;;;8.68;80.42;99208.13;5030112;28;20128;-74
2021/11/21 11:21:30;;;;;;;9.00;6.75;;;;;;;8.70;81.47;99208.91;5031156;28;20037;-73
2021/11/21 11:23:57;;;;;;;12.27;9.07;;;;;;;8.69;80.76;99204.59;5030463;28;20047;-72
2021/11/21 11:26:24;;;;;;;12.10;8.43;;;;;;;8.68;80.99;99194.13;5030542;28;20412;-72